Time,TemperatureF,DewpointF,PressureIn,WindDirection,WindDirectionDegrees,WindSpeedMPH,WindSpeedGustMPH,Humidity,HourlyPrecipIn,Conditions,Clouds,dailyrainin,SolarRadiationWatts/m^2,SoftwareType,DateUTC
2013-05-24 00:00:00,79.1,75.2,29.97,East,90,2.0,6.0,88,0.00,,,0.00,0.00,VWS V14.00,2013-05-24 05:00:00,
2013-05-24 00:15:00,79.1,74.9,29.97,ESE,112,3.0,9.0,87,0.00,,,0.00,0.00,VWS V14.00,2013-05-24 05:15:00,
2013-05-24 00:30:00,79.1,75.2,29.96,East,90,3.0,7.0,88,0.00,,,0.00,0.00,VWS V14.00,2013-05-24 05:30:00,
2013-05-24 00:45:00,79.1,75.6,29.96,East,90,3.0,7.0,89,0.00,,,0.00,0.00,VWS V14.00,2013-05-24 05:45:00,
2013-05-24 01:00:00,79.1,75.6,29.96,East,90,3.0,8.0,89,0.00,,,0.00,0.00,VWS V14.00,2013-05-24 06:00:00,
2013-05-24 01:15:00,79.2,75.7,29.95,East,90,4.0,9.0,89,0.00,,,0.00,0.00,VWS V14.00,2013-05-24 06:15:00,
2013-05-24 01:30:00,79.1,75.6,29.95,East,90,4.0,11.0,89,0.00,,,0.00,0.00,VWS V14.00,2013-05-24 06:30:00,
2013-05-24 01:45:00,79.1,75.6,29.96,ESE,112,4.0,11.0,89,0.00,,,0.00,0.00,VWS V14.00,2013-05-24 06:45:00,
2013-05-24 02:00:00,79.2,75.7,29.96,East,90,5.0,12.0,89,0.00,,,0.00,0.00,VWS V14.00,2013-05-24 07:00:00,
2013-05-24 02:15:00,79.3,75.8,29.95,East,90,4.0,12.0,89,0.00,,,0.00,0.00,VWS V14.00,2013-05-24 07:15:00,
2013-05-24 02:30:00,79.1,75.6,29.94,East,90,5.0,13.0,89,0.00,,,0.00,0.00,VWS V14.00,2013-05-24 07:30:00,
2013-05-24 02:45:00,78.9,75.7,29.94,East,90,4.0,10.0,90,0.00,,,0.00,0.00,VWS V14.00,2013-05-24 07:45:00,
2013-05-24 03:00:00,78.8,75.6,29.93,ESE,112,3.0,11.0,90,0.00,,,0.00,0.00,VWS V14.00,2013-05-24 08:00:00,
2013-05-24 03:15:00,78.8,75.3,29.93,ESE,112,3.0,10.0,89,0.00,,,0.00,0.00,VWS V14.00,2013-05-24 08:15:00,
2013-05-24 03:45:00,78.8,75.3,29.93,ESE,112,3.0,11.0,89,0.00,,,0.00,0.00,VWS V14.00,2013-05-24 08:45:00,
2013-05-24 04:00:00,78.9,75.1,29.93,ESE,112,4.0,11.0,88,0.00,,,0.00,0.00,VWS V14.00,2013-05-24 09:00:00,
2013-05-24 04:15:00,78.8,74.9,29.94,East,90,3.0,9.0,88,0.00,,,0.00,0.00,VWS V14.00,2013-05-24 09:15:00,
2013-05-24 04:30:00,78.8,74.9,29.94,East,90,3.0,12.0,88,0.00,,,0.00,0.00,VWS V14.00,2013-05-24 09:30:00,
2013-05-24 04:45:00,78.7,74.8,29.94,ESE,112,3.0,9.0,88,0.00,,,0.00,0.00,VWS V14.00,2013-05-24 09:45:00,
2013-05-24 05:00:00,78.6,74.8,29.94,SE,135,2.0,9.0,88,0.00,,,0.00,0.00,VWS V14.00,2013-05-24 10:00:00,
2013-05-24 05:15:00,78.6,75.1,29.93,East,90,3.0,9.0,89,0.00,,,0.00,0.00,VWS V14.00,2013-05-24 10:15:00,
2013-05-24 05:30:00,78.4,74.9,29.93,ESE,112,3.0,7.0,89,0.00,,,0.00,0.00,VWS V14.00,2013-05-24 10:30:00,
2013-05-24 05:45:00,78.4,74.9,29.94,ESE,112,3.0,10.0,89,0.00,,,0.00,0.00,VWS V14.00,2013-05-24 10:45:00,
2013-05-24 06:00:00,78.6,75.4,29.94,East,90,3.0,7.0,90,0.00,,,0.00,0.00,VWS V14.00,2013-05-24 11:00:00,
2013-05-24 06:15:00,78.3,74.8,29.94,East,90,3.0,11.0,89,0.00,,,0.00,0.00,VWS V14.00,2013-05-24 11:15:00,
2013-05-24 06:30:00,78.3,74.8,29.94,ESE,112,3.0,10.0,89,0.00,,,0.00,0.00,VWS V14.00,2013-05-24 11:30:00,
2013-05-24 06:45:00,78.3,74.8,29.96,SE,135,2.0,9.0,89,0.00,,,0.00,2.00,VWS V14.00,2013-05-24 11:45:00,
2013-05-24 07:00:00,78.4,74.9,29.97,ESE,112,2.0,9.0,89,0.00,,,0.00,9.00,VWS V14.00,2013-05-24 12:00:00,
2013-05-24 07:15:00,78.4,74.9,29.97,East,90,2.0,9.0,89,0.00,,,0.00,15.00,VWS V14.00,2013-05-24 12:15:00,
2013-05-24 07:30:00,78.5,75.0,29.98,East,90,2.0,10.0,89,0.00,,,0.00,26.00,VWS V14.00,2013-05-24 12:30:00,
2013-05-24 07:45:00,78.9,75.1,29.98,ESE,112,3.0,10.0,88,0.00,,,0.00,76.00,VWS V14.00,2013-05-24 12:45:00,
2013-05-24 08:00:00,79.8,75.6,29.98,ESE,112,3.0,12.0,87,0.00,,,0.00,196.00,VWS V14.00,2013-05-24 13:00:00,
2013-05-24 08:15:00,80.3,75.4,29.98,ESE,112,5.0,12.0,85,0.00,,,0.00,233.00,VWS V14.00,2013-05-24 13:15:00,
2013-05-24 08:38:00,80.5,75.2,29.98,ESE,112,4.0,12.0,84,0.00,,,0.00,209.00,VWS V14.00,2013-05-24 13:38:00,
2013-05-24 08:45:00,80.7,75.4,29.99,ESE,103,5.0,10.0,84,0.00,,,0.00,287.00,VWS V14.00,2013-05-24 13:45:00,
2013-05-24 09:00:00,81.4,75.7,30.00,East,90,4.0,12.0,83,0.00,,,0.00,352.00,VWS V14.00,2013-05-24 14:00:00,
2013-05-24 09:15:00,81.9,75.9,30.01,ESE,112,4.0,13.0,82,0.00,,,0.00,374.00,VWS V14.00,2013-05-24 14:15:00,
2013-05-24 09:30:00,81.8,75.8,30.03,ESE,112,3.0,9.0,82,0.00,,,0.00,288.00,VWS V14.00,2013-05-24 14:30:00,
2013-05-24 09:45:00,81.4,75.4,30.03,SSE,158,4.0,13.0,82,0.00,,,0.00,234.00,VWS V14.00,2013-05-24 14:45:00,
2013-05-24 10:00:00,82.6,75.4,30.05,South,180,3.0,13.0,79,0.00,,,0.00,525.00,VWS V14.00,2013-05-24 15:00:00,
2013-05-24 10:15:00,82.9,76.1,30.05,South,180,4.0,11.0,80,0.00,,,0.00,487.00,VWS V14.00,2013-05-24 15:15:00,
2013-05-24 10:30:00,82.7,75.9,30.05,South,180,3.0,10.0,80,0.00,,,0.00,452.00,VWS V14.00,2013-05-24 15:30:00,
2013-05-24 10:45:00,83.4,75.8,30.05,ESE,112,4.0,12.0,78,0.00,,,0.00,530.00,VWS V14.00,2013-05-24 15:45:00,
2013-05-24 11:00:00,82.9,75.7,30.05,ESE,112,4.0,11.0,79,0.00,,,0.00,395.00,VWS V14.00,2013-05-24 16:00:00,
2013-05-24 11:15:00,83.5,76.3,30.05,SSE,158,4.0,17.0,79,0.00,,,0.00,587.00,VWS V14.00,2013-05-24 16:15:00,
2013-05-24 11:30:00,84.1,76.5,30.05,SSE,158,3.0,10.0,78,0.00,,,0.00,569.00,VWS V14.00,2013-05-24 16:30:00,
2013-05-24 11:45:00,84.0,76.4,30.05,SSE,158,4.0,11.0,78,0.00,,,0.00,588.00,VWS V14.00,2013-05-24 16:45:00,
2013-05-24 12:00:00,85.3,77.3,30.05,East,90,4.0,11.0,77,0.00,,,0.00,1007.00,VWS V14.00,2013-05-24 17:00:00,
2013-05-24 12:15:00,85.9,77.1,30.05,ESE,112,4.0,11.0,75,0.00,,,0.00,986.00,VWS V14.00,2013-05-24 17:15:00,
2013-05-24 12:30:00,85.9,76.7,30.05,ESE,112,5.0,13.0,74,0.00,,,0.00,938.00,VWS V14.00,2013-05-24 17:30:00,
2013-05-24 12:45:00,86.5,76.8,30.03,SSE,158,5.0,13.0,73,0.00,,,0.00,969.00,VWS V14.00,2013-05-24 17:45:00,
2013-05-24 13:00:00,86.1,76.8,30.03,SSE,158,5.0,11.0,74,0.00,,,0.00,956.00,VWS V14.00,2013-05-24 18:00:00,
2013-05-24 13:15:00,85.5,77.1,30.02,East,90,5.0,13.0,76,0.00,,,0.00,790.00,VWS V14.00,2013-05-24 18:15:00,
2013-05-24 13:30:00,85.7,76.9,30.02,East,90,5.0,13.0,75,0.00,,,0.00,827.00,VWS V14.00,2013-05-24 18:30:00,
2013-05-24 13:45:00,85.0,76.2,30.01,East,90,4.0,14.0,75,0.00,,,0.00,547.00,VWS V14.00,2013-05-24 18:45:00,
2013-05-24 14:00:00,84.7,76.3,30.01,ESE,112,5.0,12.0,76,0.00,,,0.00,593.00,VWS V14.00,2013-05-24 19:00:00,
2013-05-24 14:15:00,84.7,76.3,30.01,SSE,158,5.0,13.0,76,0.00,,,0.00,623.00,VWS V14.00,2013-05-24 19:15:00,
2013-05-24 14:30:00,85.2,76.8,30.00,ESE,112,5.0,14.0,76,0.00,,,0.00,665.00,VWS V14.00,2013-05-24 19:30:00,
2013-05-24 14:45:00,85.6,76.4,30.01,East,90,5.0,13.0,74,0.00,,,0.00,847.00,VWS V14.00,2013-05-24 19:45:00,
2013-05-24 15:00:00,85.9,76.7,30.00,ESE,112,5.0,13.0,74,0.00,,,0.00,816.00,VWS V14.00,2013-05-24 20:00:00,
2013-05-24 15:15:00,84.8,76.0,30.00,East,90,5.0,12.0,75,0.00,,,0.00,482.00,VWS V14.00,2013-05-24 20:15:00,
2013-05-24 15:30:00,84.3,76.3,30.00,ESE,112,4.0,11.0,77,0.00,,,0.00,418.00,VWS V14.00,2013-05-24 20:30:00,
2013-05-24 15:45:00,84.0,75.6,29.99,ESE,103,3.0,11.0,76,0.00,,,0.00,380.00,VWS V14.00,2013-05-24 20:45:00,
2013-05-24 16:00:00,83.6,76.4,29.99,SSE,149,3.0,10.0,79,0.00,,,0.00,329.00,VWS V14.00,2013-05-24 21:00:00,
2013-05-24 16:15:00,83.1,75.9,29.99,East,90,4.0,14.0,79,0.00,,,0.00,300.00,VWS V14.00,2013-05-24 21:15:00,
2013-05-24 16:30:00,82.9,75.7,29.99,ESE,112,4.0,13.0,79,0.00,,,0.00,261.00,VWS V14.00,2013-05-24 21:30:00,
2013-05-24 16:45:00,82.4,75.6,30.00,ESE,112,4.0,11.0,80,0.00,,,0.00,200.00,VWS V14.00,2013-05-24 21:45:00,
2013-05-24 17:00:00,82.2,75.8,29.99,East,90,4.0,11.0,81,0.00,,,0.00,181.00,VWS V14.00,2013-05-24 22:00:00,
2013-05-24 17:15:00,82.0,75.6,29.99,East,90,4.0,11.0,81,0.00,,,0.00,161.00,VWS V14.00,2013-05-24 22:15:00,
2013-05-24 17:30:00,82.0,76.0,29.99,ESE,112,3.0,11.0,82,0.00,,,0.00,129.00,VWS V14.00,2013-05-24 22:30:00,
2013-05-24 17:45:00,81.7,75.7,30.00,East,90,3.0,9.0,82,0.00,,,0.00,113.00,VWS V14.00,2013-05-24 22:45:00,
2013-05-24 18:00:00,81.5,75.5,29.99,East,90,3.0,8.0,82,0.00,,,0.00,100.00,VWS V14.00,2013-05-24 23:00:00,
2013-05-24 18:15:00,81.3,75.3,29.99,East,90,3.0,10.0,82,0.00,,,0.00,98.00,VWS V14.00,2013-05-24 23:15:00,
2013-05-24 18:30:00,81.1,75.4,29.99,East,90,3.0,11.0,83,0.00,,,0.00,73.00,VWS V14.00,2013-05-24 23:30:00,
2013-05-24 18:45:00,81.1,75.4,29.99,ESE,112,2.0,7.0,83,0.00,,,0.00,78.00,VWS V14.00,2013-05-24 23:45:00,
2013-05-24 19:00:00,80.9,75.6,29.99,ESE,112,3.0,9.0,84,0.00,,,0.00,67.00,VWS V14.00,2013-05-25 00:00:00,
2013-05-24 19:15:00,80.9,75.6,29.99,East,90,3.0,9.0,84,0.00,,,0.00,52.00,VWS V14.00,2013-05-25 00:15:00,
2013-05-24 19:30:00,80.4,75.5,29.99,East,90,3.0,9.0,85,0.00,,,0.00,29.00,VWS V14.00,2013-05-25 00:30:00,
2013-05-24 19:45:00,79.8,75.2,29.99,East,90,2.0,7.0,86,0.00,,,0.00,21.00,VWS V14.00,2013-05-25 00:45:00,
2013-05-24 20:00:00,79.7,75.2,30.00,ESE,112,3.0,8.0,86,0.00,,,0.00,14.00,VWS V14.00,2013-05-25 01:00:00,
2013-05-24 20:15:00,79.7,75.5,30.00,ESE,112,3.0,7.0,87,0.00,,,0.00,2.00,VWS V14.00,2013-05-25 01:15:00,
2013-05-24 20:30:00,79.6,75.4,29.99,East,90,3.0,10.0,87,0.00,,,0.00,0.00,VWS V14.00,2013-05-25 01:30:00,
2013-05-24 20:45:00,79.6,75.4,29.99,East,90,2.0,7.0,87,0.00,,,0.00,0.00,VWS V14.00,2013-05-25 01:45:00,
2013-05-24 21:00:00,79.5,75.3,29.99,East,90,3.0,10.0,87,0.00,,,0.00,0.00,VWS V14.00,2013-05-25 02:00:00,
2013-05-24 21:15:00,79.5,75.3,29.99,ESE,112,4.0,12.0,87,0.00,,,0.00,0.00,VWS V14.00,2013-05-25 02:15:00,
2013-05-24 21:30:00,79.7,75.8,29.99,East,90,4.0,11.0,88,0.00,,,0.00,0.00,VWS V14.00,2013-05-25 02:30:00,
2013-05-24 21:45:00,79.6,75.4,30.00,ESE,112,5.0,12.0,87,0.00,,,0.00,0.00,VWS V14.00,2013-05-25 02:45:00,
2013-05-24 22:00:00,79.6,75.4,30.01,East,90,4.0,13.0,87,0.00,,,0.00,0.00,VWS V14.00,2013-05-25 03:00:00,
2013-05-24 22:15:00,79.7,75.5,30.01,East,90,5.0,12.0,87,0.00,,,0.00,0.00,VWS V14.00,2013-05-25 03:15:00,
2013-05-24 22:30:00,79.6,75.1,30.02,East,90,5.0,12.0,86,0.00,,,0.00,0.00,VWS V14.00,2013-05-25 03:30:00,
2013-05-24 22:45:00,79.6,75.4,30.02,East,90,4.0,13.0,87,0.00,,,0.00,0.00,VWS V14.00,2013-05-25 03:45:00,
2013-05-24 23:00:00,79.5,75.3,30.01,East,90,4.0,10.0,87,0.00,,,0.00,0.00,VWS V14.00,2013-05-25 04:00:00,
2013-05-24 23:15:00,79.3,75.1,30.01,East,90,4.0,12.0,87,0.00,,,0.00,0.00,VWS V14.00,2013-05-25 04:15:00,
2013-05-24 23:30:00,79.2,75.3,30.02,East,90,5.0,11.0,88,0.00,,,0.00,0.00,VWS V14.00,2013-05-25 04:30:00,
2013-05-24 23:45:00,79.2,75.3,30.02,East,90,5.0,12.0,88,0.00,,,0.00,0.00,VWS V14.00,2013-05-25 04:45:00,